Terminal Aerodrome Forecast
Issued by NWS

Home | Current Version | Previous Version | Graphics & Text | Print | Product List | Glossary On
Versions: 1 2 3 4 5 6 7 8 9 10 11 12 13 14 15 16 17 18 19
000
FTUS43 KMPX 281100
TAFRWF
TAF
KRWF 281132Z 2812/2912 25005KT P6SM SCT018 BKN040
     FM281400 33006KT P6SM BKN018
     FM282100 36005KT P6SM SCT250
     FM290300 36006KT P6SM BKN060 OVC150=

USA.gov is the U.S. government's official web portal to all federal, state and local government web resources and services.